createdAt,value
2018-02-22T00:00:28.473Z,24.97
2018-02-22T00:03:01.064Z,25.90
2018-02-22T00:05:33.609Z,24.07
2018-02-22T00:08:06.112Z,21.67
2018-02-22T00:10:38.698Z,23.53
2018-02-22T00:13:11.218Z,22.90
2018-02-22T00:15:43.740Z,24.53
2018-02-22T00:18:16.249Z,25.53
2018-02-22T00:20:48.771Z,26.93
2018-02-22T00:23:21.307Z,29.30
2018-02-22T00:25:53.835Z,31.57
2018-02-22T00:28:26.345Z,28.70
2018-02-22T00:30:59.064Z,23.43
2018-02-22T00:33:31.580Z,26.20
2018-02-22T00:36:04.108Z,24.70
2018-02-22T00:38:36.654Z,26.10
2018-02-22T00:41:09.277Z,28.10
2018-02-22T00:43:41.793Z,23.37
2018-02-22T00:46:14.315Z,26.83
2018-02-22T00:48:46.824Z,23.33
2018-02-22T00:51:19.348Z,24.70
2018-02-22T00:53:51.862Z,24.37
2018-02-22T00:56:24.381Z,25.03
2018-02-22T00:58:56.937Z,25.80
2018-02-22T01:01:29.470Z,28.87
2018-02-22T01:04:02.021Z,24.87
2018-02-22T01:06:34.533Z,28.60
2018-02-22T01:09:07.087Z,23.23
2018-02-22T01:11:39.615Z,24.70
2018-02-22T01:14:12.173Z,23.47
2018-02-22T01:16:44.683Z,25.37
2018-02-22T01:19:17.233Z,27.90
2018-02-22T01:21:49.768Z,26.03
2018-02-22T01:24:22.334Z,27.00
2018-02-22T01:26:54.847Z,26.70
2018-02-22T01:29:27.400Z,24.47
2018-02-22T01:31:59.966Z,21.90
2018-02-22T01:34:32.512Z,26.40
2018-02-22T01:37:05.052Z,25.93
2018-02-22T01:39:37.615Z,23.87
2018-02-22T01:42:10.155Z,25.07
2018-02-22T01:44:42.689Z,27.70
2018-02-22T01:47:15.204Z,24.10
2018-02-22T01:49:47.729Z,24.70
2018-02-22T01:52:20.231Z,22.50
2018-02-22T01:54:52.754Z,27.40
2018-02-22T01:57:25.367Z,24.47
2018-02-22T01:59:57.894Z,26.70
2018-02-22T02:02:30.415Z,25.10
2018-02-22T02:05:02.987Z,24.90
2018-02-22T02:07:35.499Z,29.57
2018-02-22T02:10:08.062Z,25.90
2018-02-22T02:12:40.574Z,28.17
2018-02-22T02:15:13.117Z,23.63
2018-02-22T02:17:45.630Z,24.10
2018-02-22T02:20:18.158Z,26.07
2018-02-22T02:22:50.670Z,25.10
2018-02-22T02:25:23.220Z,26.63
2018-02-22T02:28:01.426Z,23.17
2018-02-22T02:30:33.964Z,24.73
2018-02-22T02:33:06.492Z,23.53
2018-02-22T02:35:39.032Z,24.83
2018-02-22T02:38:11.554Z,24.50
2018-02-22T02:40:44.171Z,23.23
2018-02-22T02:43:16.646Z,22.13
2018-02-22T02:45:49.182Z,23.47
2018-02-22T02:48:21.717Z,25.70
2018-02-22T02:50:54.265Z,28.03
2018-02-22T02:53:26.764Z,31.10
2018-02-22T02:55:59.296Z,27.53
2018-02-22T02:58:31.812Z,27.43
2018-02-22T03:01:04.342Z,27.27
2018-02-22T03:03:36.843Z,23.33
2018-02-22T03:06:09.371Z,24.80
2018-02-22T03:08:41.882Z,24.30
2018-02-22T03:11:14.565Z,29.50
2018-02-22T03:13:47.064Z,24.07
2018-02-22T03:16:19.601Z,24.63
2018-02-22T03:18:52.115Z,23.13
2018-02-22T03:21:24.665Z,25.03
2018-02-22T03:23:57.204Z,27.77
2018-02-22T03:26:29.728Z,24.47
2018-02-22T03:29:02.250Z,25.07
2018-02-22T03:31:34.797Z,25.10
2018-02-22T03:34:07.308Z,25.63
2018-02-22T03:36:39.845Z,23.07
2018-02-22T03:39:12.419Z,23.47
2018-02-22T03:41:44.944Z,25.97
2018-02-22T03:44:17.459Z,24.20
2018-02-22T03:46:49.998Z,24.73
2018-02-22T03:49:22.505Z,23.07
2018-02-22T03:51:55.039Z,22.93
2018-02-22T03:54:27.614Z,23.90
2018-02-22T03:57:00.228Z,23.63
2018-02-22T03:59:32.737Z,20.67
2018-02-22T04:02:05.268Z,21.73
2018-02-22T04:04:38.120Z,25.60
2018-02-22T04:07:10.696Z,27.87
2018-02-22T04:09:43.206Z,29.57
2018-02-22T04:12:15.725Z,30.90
2018-02-22T04:14:48.240Z,44.13
2018-02-22T04:17:20.766Z,26.97
2018-02-22T04:19:53.367Z,29.63
2018-02-22T04:22:25.987Z,28.67
2018-02-22T04:24:58.524Z,30.97
2018-02-22T04:27:31.025Z,26.63
2018-02-22T04:30:03.572Z,25.73
2018-02-22T04:32:36.085Z,34.27
2018-02-22T04:35:08.634Z,32.57
2018-02-22T04:37:41.144Z,27.10
2018-02-22T04:40:13.678Z,30.67
2018-02-22T04:42:46.179Z,27.10
2018-02-22T04:45:18.715Z,25.63
2018-02-22T04:47:51.241Z,30.57
2018-02-22T04:50:23.784Z,25.80
2018-02-22T04:52:56.310Z,30.97
2018-02-22T04:55:28.828Z,25.93
2018-02-22T04:58:01.346Z,26.50
2018-02-22T05:00:33.939Z,26.80
2018-02-22T05:03:06.487Z,28.43
2018-02-22T05:05:39.024Z,31.20
2018-02-22T05:08:11.550Z,24.33
2018-02-22T05:10:44.074Z,23.47
2018-02-22T05:13:16.612Z,24.40
2018-02-22T05:15:49.130Z,27.00
2018-02-22T05:18:21.638Z,29.13
2018-02-22T05:20:54.162Z,39.67
2018-02-22T05:23:26.681Z,27.07
2018-02-22T05:25:59.200Z,31.23
2018-02-22T05:28:31.718Z,28.87
2018-02-22T05:31:04.258Z,32.77
2018-02-22T05:33:36.755Z,30.03
2018-02-22T05:36:09.301Z,31.63
2018-02-22T05:38:41.794Z,26.93
2018-02-22T05:41:14.320Z,24.90
2018-02-22T05:43:46.832Z,29.57
2018-02-22T05:46:19.366Z,26.23
2018-02-22T05:48:51.876Z,26.77
2018-02-22T05:51:24.401Z,25.43
2018-02-22T05:53:56.914Z,27.33
2018-02-22T05:56:29.437Z,27.63
2018-02-22T05:59:01.953Z,28.17
2018-02-22T06:01:34.479Z,27.60
2018-02-22T06:04:06.999Z,31.60
2018-02-22T06:06:39.528Z,28.03
2018-02-22T06:09:12.030Z,28.47
2018-02-22T06:11:44.584Z,29.67
2018-02-22T06:14:17.092Z,27.77
2018-02-22T06:16:49.631Z,28.60
2018-02-22T06:19:22.162Z,30.20
2018-02-22T06:21:54.674Z,29.90
2018-02-22T06:24:27.176Z,34.60
2018-02-22T06:26:59.706Z,29.27
2018-02-22T06:29:32.213Z,30.27
2018-02-22T06:32:04.725Z,27.93
2018-02-22T06:34:37.258Z,37.90
2018-02-22T06:37:09.775Z,32.53
2018-02-22T06:39:42.282Z,33.43
2018-02-22T06:42:14.804Z,26.90
2018-02-22T06:44:47.314Z,29.97
2018-02-22T06:47:19.838Z,27.17
2018-02-22T06:49:52.355Z,26.93
2018-02-22T06:52:24.881Z,26.10
2018-02-22T06:54:57.384Z,27.60
2018-02-22T06:57:29.910Z,25.40
2018-02-22T07:00:02.410Z,31.07
2018-02-22T07:02:34.936Z,29.30
2018-02-22T07:05:07.430Z,26.90
2018-02-22T07:07:39.956Z,28.17
2018-02-22T07:10:12.457Z,34.37
2018-02-22T07:12:44.985Z,31.10
2018-02-22T07:15:17.487Z,32.70
2018-02-22T07:17:50.007Z,35.73
2018-02-22T07:20:24.433Z,39.57
2018-02-22T07:22:56.956Z,35.93
2018-02-22T07:25:29.461Z,34.20
2018-02-22T07:28:01.979Z,40.33
2018-02-22T07:30:34.483Z,45.73
2018-02-22T07:33:07.020Z,40.80
2018-02-22T07:35:39.521Z,36.37
2018-02-22T07:38:12.044Z,39.03
2018-02-22T07:40:44.609Z,34.93
2018-02-22T07:43:17.143Z,38.87
2018-02-22T07:45:49.695Z,48.77
2018-02-22T07:48:22.236Z,51.40
2018-02-22T07:50:54.746Z,41.67
2018-02-22T07:53:27.265Z,56.63
2018-02-22T07:55:59.818Z,44.70
2018-02-22T07:58:32.308Z,35.43
2018-02-22T08:01:04.827Z,38.73
2018-02-22T08:03:37.378Z,33.33
2018-02-22T08:06:09.957Z,35.67
2018-02-22T08:08:42.467Z,33.27
2018-02-22T08:11:14.984Z,27.93
2018-02-22T08:13:47.497Z,33.27
2018-02-22T08:16:20.016Z,38.53
2018-02-22T08:18:52.524Z,32.60
2018-02-22T08:21:25.049Z,32.87
2018-02-22T08:23:58.670Z,35.93
2018-02-22T08:26:31.200Z,35.90
2018-02-22T08:29:03.711Z,31.17
2018-02-22T08:31:36.237Z,28.30
2018-02-22T08:34:08.743Z,28.27
2018-02-22T08:36:41.274Z,31.47
2018-02-22T08:39:13.843Z,27.50
2018-02-22T08:41:46.356Z,28.77
2018-02-22T08:44:18.865Z,25.47
2018-02-22T08:46:51.381Z,26.30
2018-02-22T08:49:23.881Z,31.63
2018-02-22T08:51:56.451Z,24.40
2018-02-22T08:54:28.961Z,21.70
2018-02-22T08:57:01.484Z,23.07
2018-02-22T08:59:33.985Z,25.33
2018-02-22T09:02:06.497Z,22.63
2018-02-22T09:04:39.016Z,21.60
2018-02-22T09:07:11.535Z,20.97
2018-02-22T09:09:44.056Z,20.40
2018-02-22T09:12:16.585Z,20.17
2018-02-22T09:14:49.106Z,17.97
2018-02-22T09:17:21.647Z,19.60
2018-02-22T09:19:54.154Z,21.73
2018-02-22T09:22:26.685Z,19.20
2018-02-22T09:24:59.392Z,18.70
2018-02-22T09:27:31.932Z,16.53
2018-02-22T09:30:04.443Z,18.10
2018-02-22T09:32:36.995Z,18.60
2018-02-22T09:35:09.513Z,17.53
2018-02-22T09:37:42.040Z,18.60
2018-02-22T09:40:14.543Z,23.87
2018-02-22T09:42:47.059Z,18.93
2018-02-22T09:45:19.560Z,23.17
2018-02-22T09:47:52.085Z,20.37
2018-02-22T09:50:24.590Z,23.40
2018-02-22T09:52:57.103Z,20.17
2018-02-22T09:55:29.605Z,20.37
2018-02-22T09:58:02.140Z,22.73
2018-02-22T10:00:34.640Z,19.23
2018-02-22T10:03:07.172Z,20.27
2018-02-22T10:05:39.679Z,21.50
2018-02-22T10:08:12.215Z,18.80
2018-02-22T10:10:44.721Z,19.13
2018-02-22T10:13:17.241Z,17.83
2018-02-22T10:15:49.747Z,21.77
2018-02-22T10:18:22.278Z,20.50
2018-02-22T10:20:54.778Z,19.73
2018-02-22T10:23:27.303Z,25.17
2018-02-22T10:25:59.810Z,19.53
2018-02-22T10:28:32.369Z,18.73
2018-02-22T10:31:04.867Z,18.83
2018-02-22T10:33:37.392Z,20.27
2018-02-22T10:36:09.898Z,18.13
2018-02-22T10:38:42.426Z,17.80
2018-02-22T10:41:14.950Z,16.53
2018-02-22T10:43:47.469Z,18.57
2018-02-22T10:46:19.968Z,18.77
2018-02-22T10:48:52.496Z,19.63
2018-02-22T10:51:25.019Z,19.43
2018-02-22T10:53:57.538Z,18.63
2018-02-22T10:56:30.042Z,19.67
2018-02-22T10:59:02.573Z,19.33
2018-02-22T11:01:40.764Z,18.27
2018-02-22T11:04:13.284Z,18.00
2018-02-22T11:06:45.796Z,19.53
2018-02-22T11:09:18.313Z,24.67
2018-02-22T11:11:50.825Z,19.60
2018-02-22T11:14:23.350Z,18.30
2018-02-22T11:16:55.862Z,20.87
2018-02-22T11:19:28.384Z,21.17
2018-02-22T11:22:00.881Z,18.60
2018-02-22T11:24:33.403Z,19.50
2018-02-22T11:27:05.908Z,20.00
2018-02-22T11:29:38.428Z,19.50
2018-02-22T11:32:10.924Z,20.00
2018-02-22T11:34:46.489Z,19.20
2018-02-22T11:37:18.992Z,19.90
2018-02-22T11:39:51.504Z,19.80
2018-02-22T11:42:24.041Z,19.07
2018-02-22T11:44:56.533Z,18.70
2018-02-22T11:47:29.053Z,19.40
2018-02-22T11:50:01.564Z,20.23
2018-02-22T11:52:34.089Z,18.43
2018-02-22T11:55:06.598Z,19.53
2018-02-22T11:57:39.121Z,18.43
2018-02-22T12:00:11.627Z,19.83
2018-02-22T12:02:44.160Z,19.73
2018-02-22T12:05:16.661Z,21.23
2018-02-22T12:07:49.287Z,19.73
2018-02-22T12:10:21.789Z,20.17
2018-02-22T12:12:54.333Z,23.40
2018-02-22T12:15:26.832Z,19.83
2018-02-22T12:17:59.368Z,19.30
2018-02-22T12:20:31.890Z,20.17
2018-02-22T12:23:04.412Z,16.47
2018-02-22T12:25:36.907Z,17.13
2018-02-22T12:28:09.421Z,17.93
2018-02-22T12:30:41.933Z,15.97
2018-02-22T12:33:14.525Z,17.10
2018-02-22T12:35:47.027Z,18.27
2018-02-22T12:38:19.534Z,16.30
2018-02-22T12:40:52.038Z,16.60
2018-02-22T12:43:24.562Z,18.10
2018-02-22T12:45:57.058Z,17.70
2018-02-22T12:48:29.650Z,20.20
2018-02-22T12:51:02.220Z,17.67
2018-02-22T12:53:34.743Z,17.53
2018-02-22T12:56:07.246Z,16.63
2018-02-22T12:58:39.760Z,17.13
2018-02-22T13:01:12.267Z,13.20
2018-02-22T13:03:44.791Z,14.97
2018-02-22T13:06:17.309Z,15.77
2018-02-22T13:08:49.832Z,13.57
2018-02-22T13:11:22.323Z,17.30
2018-02-22T13:13:54.846Z,18.00
2018-02-22T13:16:27.350Z,18.57
2018-02-22T13:18:59.871Z,17.40
2018-02-22T13:21:32.370Z,18.90
2018-02-22T13:24:04.891Z,17.67
2018-02-22T13:26:37.400Z,21.37
2018-02-22T13:29:09.925Z,19.60
2018-02-22T13:31:42.425Z,17.57
2018-02-22T13:34:20.533Z,18.87
2018-02-22T13:36:53.046Z,17.43
2018-02-22T13:39:25.572Z,15.87
2018-02-22T13:41:58.156Z,16.10
2018-02-22T13:44:42.401Z,16.33
2018-02-22T13:47:14.907Z,15.30
2018-02-22T13:49:59.280Z,14.90
2018-02-22T13:52:31.848Z,15.20
2018-02-22T13:55:04.356Z,15.30
2018-02-22T13:57:36.856Z,15.77
2018-02-22T14:00:09.381Z,14.60
2018-02-22T14:02:41.892Z,14.67
2018-02-22T14:05:14.422Z,14.43
2018-02-22T14:07:46.920Z,13.43
2018-02-22T14:10:19.439Z,13.70
2018-02-22T14:12:51.973Z,14.33
2018-02-22T14:15:24.494Z,14.37
2018-02-22T14:17:56.992Z,15.07
2018-02-22T14:20:29.507Z,15.03
2018-02-22T14:23:02.034Z,17.07
2018-02-22T14:25:34.547Z,19.13
2018-02-22T14:28:07.036Z,20.33
2018-02-22T14:30:39.554Z,17.70
2018-02-22T14:33:12.070Z,16.13
2018-02-22T14:35:44.592Z,17.80
2018-02-22T14:38:17.093Z,17.27
2018-02-22T14:40:49.619Z,17.83
2018-02-22T14:43:22.158Z,17.77
2018-02-22T14:45:54.691Z,20.50
2018-02-22T14:48:27.223Z,17.83
2018-02-22T14:50:59.726Z,19.60
2018-02-22T14:53:33.308Z,22.40
2018-02-22T14:56:05.845Z,18.50
2018-02-22T14:58:38.360Z,19.30
2018-02-22T15:01:11.301Z,20.80
2018-02-22T15:03:43.975Z,21.83
2018-02-22T15:06:16.639Z,21.70
2018-02-22T15:08:49.331Z,20.10
2018-02-22T15:11:21.969Z,18.00
2018-02-22T15:13:54.499Z,18.20
2018-02-22T15:16:27.024Z,19.80
2018-02-22T15:18:59.521Z,18.73
2018-02-22T15:21:32.056Z,17.67
2018-02-22T15:24:04.574Z,19.43
2018-02-22T15:26:37.119Z,21.33
2018-02-22T15:29:09.633Z,19.40
2018-02-22T15:31:43.287Z,20.77
2018-02-22T15:34:15.798Z,19.77
2018-02-22T15:36:48.359Z,23.53
2018-02-22T15:39:20.878Z,22.47
2018-02-22T15:41:53.450Z,23.53
2018-02-22T15:44:25.980Z,21.13
2018-02-22T15:46:58.539Z,21.37
2018-02-22T15:49:31.116Z,22.43
2018-02-22T15:52:03.792Z,22.17
2018-02-22T15:54:36.384Z,20.63
2018-02-22T15:57:09.854Z,23.53
2018-02-22T15:59:42.353Z,21.53
2018-02-22T16:02:14.882Z,21.87
2018-02-22T16:04:47.398Z,21.33
2018-02-22T16:07:19.924Z,21.73
2018-02-22T16:09:52.436Z,21.67
2018-02-22T16:12:24.956Z,21.63
2018-02-22T16:14:57.504Z,24.87
2018-02-22T16:17:30.055Z,21.80
2018-02-22T16:20:02.559Z,22.50
2018-02-22T16:22:35.148Z,25.37
2018-02-22T16:25:07.677Z,22.10
2018-02-22T16:27:40.195Z,22.37
2018-02-22T16:30:12.769Z,23.13
2018-02-22T16:32:45.296Z,25.27
2018-02-22T16:35:17.800Z,26.97
2018-02-22T16:37:50.340Z,26.67
2018-02-22T16:40:24.859Z,33.57
2018-02-22T16:42:57.371Z,26.40
2018-02-22T16:45:29.915Z,29.17
2018-02-22T16:48:02.455Z,30.63
2018-02-22T16:50:34.959Z,27.37
2018-02-22T16:53:07.468Z,27.73
2018-02-22T16:55:39.972Z,30.60
2018-02-22T16:58:13.511Z,31.23
2018-02-22T17:00:46.043Z,30.33
2018-02-22T17:03:18.551Z,30.63
2018-02-22T17:05:51.057Z,32.77
2018-02-22T17:08:23.681Z,31.67
2018-02-22T17:10:56.188Z,32.07
2018-02-22T17:13:28.693Z,33.67
2018-02-22T17:16:01.248Z,31.97
2018-02-22T17:18:33.740Z,30.90
2018-02-22T17:21:06.263Z,32.67
2018-02-22T17:23:38.762Z,34.33
2018-02-22T17:26:16.917Z,32.20
2018-02-22T17:28:54.986Z,35.70
2018-02-22T17:31:33.088Z,32.67
2018-02-22T17:34:05.584Z,33.87
2018-02-22T17:36:41.843Z,30.53
2018-02-22T17:42:25.920Z,36.00
2018-02-22T17:44:58.423Z,34.30
2018-02-22T17:47:30.951Z,35.97
2018-02-22T17:50:03.544Z,32.87
2018-02-22T17:52:36.061Z,37.87
2018-02-22T17:55:08.584Z,38.17
2018-02-22T17:57:41.109Z,34.63
2018-02-22T18:00:13.641Z,38.30
2018-02-22T18:02:46.155Z,39.73
2018-02-22T18:05:18.655Z,34.13
2018-02-22T18:07:51.173Z,37.03
2018-02-22T18:10:25.652Z,34.77
2018-02-22T18:12:58.176Z,33.13
2018-02-22T18:15:30.686Z,39.03
2018-02-22T18:18:03.218Z,37.67
2018-02-22T18:20:35.740Z,37.27
2018-02-22T18:23:08.303Z,39.80
2018-02-22T18:25:40.869Z,34.03
2018-02-22T18:28:13.509Z,36.30
2018-02-22T18:30:46.011Z,35.97
2018-02-22T18:33:18.550Z,39.17
2018-02-22T18:35:51.332Z,36.00
2018-02-22T18:38:25.866Z,36.80
2018-02-22T18:40:59.299Z,34.83
2018-02-22T18:43:38.569Z,35.50
2018-02-22T18:46:11.083Z,39.27
2018-02-22T18:48:43.596Z,38.17
2018-02-22T18:51:16.603Z,35.23
2018-02-22T18:53:49.187Z,35.00
2018-02-22T18:56:21.714Z,38.13
2018-02-22T18:58:54.265Z,35.83
2018-02-22T19:01:26.795Z,38.60
2018-02-22T19:03:59.334Z,40.80
2018-02-22T19:06:31.865Z,38.43
2018-02-22T19:09:04.406Z,39.93
2018-02-22T19:11:36.911Z,38.60
2018-02-22T19:14:09.444Z,37.17
2018-02-22T19:16:41.950Z,40.73
2018-02-22T19:19:14.496Z,37.17
2018-02-22T19:21:48.067Z,41.77
2018-02-22T19:24:20.578Z,38.17
2018-02-22T19:26:53.132Z,35.23
2018-02-22T19:29:25.645Z,34.87
2018-02-22T19:31:58.165Z,33.93
2018-02-22T19:34:30.762Z,33.40
2018-02-22T19:37:03.275Z,35.03
2018-02-22T19:39:37.856Z,33.23
2018-02-22T19:42:10.414Z,31.43
2018-02-22T19:44:42.926Z,30.50
2018-02-22T19:47:15.491Z,28.70
2018-02-22T19:49:48.005Z,31.27
2018-02-22T19:52:20.530Z,25.83
2018-02-22T19:54:53.031Z,25.70
2018-02-22T19:57:25.554Z,24.30
2018-02-22T19:59:58.055Z,25.07
2018-02-22T20:02:30.593Z,25.63
2018-02-22T20:05:03.093Z,23.83
2018-02-22T20:07:35.625Z,24.03
2018-02-22T20:10:08.146Z,19.47
2018-02-22T20:12:40.675Z,21.03
2018-02-22T20:15:13.246Z,20.73
2018-02-22T20:17:45.776Z,20.27
2018-02-22T20:20:18.272Z,23.77
2018-02-22T20:22:50.870Z,22.23
2018-02-22T20:25:23.417Z,18.57
2018-02-22T20:27:55.998Z,17.47
2018-02-22T20:30:28.501Z,16.90
2018-02-22T20:33:01.221Z,17.73
2018-02-22T20:35:33.733Z,15.83
2018-02-22T20:38:06.325Z,15.90
2018-02-22T20:40:38.834Z,15.33
2018-02-22T20:43:11.352Z,17.03
2018-02-22T20:45:43.868Z,17.13
2018-02-22T20:48:16.397Z,14.93
2018-02-22T20:50:48.979Z,14.70
2018-02-22T20:53:22.484Z,14.53
2018-02-22T20:55:55.044Z,14.80
2018-02-22T20:58:27.917Z,14.37
2018-02-22T21:01:00.424Z,13.70
2018-02-22T21:03:37.475Z,16.33
2018-02-22T21:06:09.982Z,14.70
2018-02-22T21:08:42.588Z,13.50
2018-02-22T21:11:16.175Z,11.97
2018-02-22T21:13:48.694Z,11.83
2018-02-22T21:16:21.260Z,11.47
2018-02-22T21:18:53.746Z,13.17
2018-02-22T21:21:26.250Z,12.20
2018-02-22T21:23:58.768Z,12.97
2018-02-22T21:26:31.295Z,11.70
2018-02-22T21:29:03.808Z,12.20
2018-02-22T21:31:36.339Z,11.60
2018-02-22T21:34:08.854Z,11.67
2018-02-22T21:36:41.402Z,11.30
2018-02-22T21:39:13.929Z,12.23
2018-02-22T21:41:46.423Z,10.60
2018-02-22T21:44:18.946Z,10.90
2018-02-22T21:46:51.480Z,9.83
2018-02-22T21:49:23.977Z,10.43
2018-02-22T21:51:56.489Z,11.17
2018-02-22T21:54:29.041Z,10.67
2018-02-22T21:57:01.532Z,9.53
2018-02-22T21:59:34.130Z,11.53
2018-02-22T22:02:06.645Z,10.33
2018-02-22T22:04:39.193Z,10.83
2018-02-22T22:07:11.718Z,10.27
2018-02-22T22:09:44.247Z,9.97
2018-02-22T22:12:16.746Z,8.90
2018-02-22T22:14:49.264Z,9.53
2018-02-22T22:17:21.767Z,9.70
2018-02-22T22:19:54.294Z,9.27
2018-02-22T22:22:26.787Z,8.10
2018-02-22T22:24:59.304Z,9.17
2018-02-22T22:27:31.793Z,7.73
2018-02-22T22:30:04.307Z,7.77
2018-02-22T22:32:36.797Z,7.93
2018-02-22T22:35:09.324Z,8.37
2018-02-22T22:37:41.809Z,8.97
2018-02-22T22:40:14.307Z,9.23
2018-02-22T22:42:46.810Z,8.87
2018-02-22T22:45:19.325Z,8.53
2018-02-22T22:47:51.820Z,9.63
2018-02-22T22:50:24.328Z,8.63
2018-02-22T22:52:56.881Z,10.27
2018-02-22T22:55:29.396Z,8.20
2018-02-22T22:58:01.889Z,7.47
2018-02-22T23:00:34.405Z,8.13
2018-02-22T23:03:06.893Z,7.97
2018-02-22T23:05:39.413Z,7.80
2018-02-22T23:08:11.934Z,9.47
2018-02-22T23:10:44.461Z,7.67
2018-02-22T23:13:16.986Z,7.70
2018-02-22T23:15:49.500Z,7.20
2018-02-22T23:18:21.990Z,7.67
2018-02-22T23:20:54.539Z,7.57
2018-02-22T23:23:27.058Z,7.30
2018-02-22T23:25:59.550Z,8.10
2018-02-22T23:28:32.075Z,8.87
2018-02-22T23:31:04.578Z,9.00
2018-02-22T23:33:37.112Z,9.07
2018-02-22T23:36:09.622Z,8.30
2018-02-22T23:38:42.154Z,9.03
2018-02-22T23:44:20.205Z,10.57
2018-02-22T23:46:52.697Z,9.17
2018-02-22T23:49:25.213Z,9.83
2018-02-22T23:51:57.699Z,10.47
2018-02-22T23:54:30.212Z,9.30
2018-02-22T23:57:02.705Z,10.13
2018-02-22T23:59:35.218Z,9.50
